FDB1113 OMDB-OSDI
Flight info
| Callsign | FDB1113 |
|---|---|
| Flight time | 3h 3m |
| Altitude | 32000 |
| Route | SENPA N571 ALPOB L768 SOKAN |
| Aircraft | B38M/M-SDE1E2E3FGHIJ1LM3ORVWXYZ/HB1 |
Departure
| Time | 2026-04-21 04:48 |
|---|---|
| Airport | Dubai International Airport (OMDB) |
Arrival
| Time | 2026-04-21 07:51 |
|---|---|
| Airport | Damascus International Airport (OSDI) |
| Time | Latitude | Longitude | Altitude | Speed | Heading |
|---|---|---|---|---|---|
| 2026-04-21 04:18 | 25.26268 | 55.34444 | 26 ft | 0 kts | 31° |
| 2026-04-21 04:31 | 25.26253 | 55.34434 | 23 ft | 4 kts | 31° |
| 2026-04-21 04:31 | 25.26230 | 55.34419 | 25 ft | 4 kts | 31° |
| 2026-04-21 04:31 | 25.26208 | 55.34404 | 27 ft | 2 kts | 31° |
| 2026-04-21 04:31 | 25.26190 | 55.34389 | 29 ft | 4 kts | 57° |
| 2026-04-21 04:32 | 25.26185 | 55.34364 | 25 ft | 4 kts | 108° |
| 2026-04-21 04:32 | 25.26197 | 55.34340 | 28 ft | 4 kts | 122° |
| 2026-04-21 04:32 | 25.26203 | 55.34329 | 27 ft | 0 kts | 122° |
| 2026-04-21 04:35 | 25.26201 | 55.34333 | 27 ft | 1 kts | 122° |
| 2026-04-21 04:35 | 25.26193 | 55.34346 | 28 ft | 3 kts | 122° |
| 2026-04-21 04:36 | 25.26179 | 55.34372 | 25 ft | 5 kts | 122° |
| 2026-04-21 04:36 | 25.26159 | 55.34408 | 26 ft | 6 kts | 122° |
| 2026-04-21 04:36 | 25.26133 | 55.34455 | 24 ft | 8 kts | 122° |
| 2026-04-21 04:36 | 25.26101 | 55.34511 | 24 ft | 10 kts | 122° |
| 2026-04-21 04:37 | 25.26063 | 55.34578 | 25 ft | 11 kts | 122° |
| 2026-04-21 04:37 | 25.26020 | 55.34655 | 25 ft | 12 kts | 122° |
| 2026-04-21 04:37 | 25.25972 | 55.34742 | 26 ft | 14 kts | 122° |
| 2026-04-21 04:37 | 25.25919 | 55.34837 | 24 ft | 15 kts | 122° |
| 2026-04-21 04:38 | 25.25861 | 55.34941 | 24 ft | 17 kts | 122° |
| 2026-04-21 04:38 | 25.25798 | 55.35053 | 24 ft | 18 kts | 121° |
| 2026-04-21 04:38 | 25.25747 | 55.35147 | 24 ft | 10 kts | 114° |
| 2026-04-21 04:38 | 25.25772 | 55.35218 | 26 ft | 11 kts | 36° |
| 2026-04-21 04:39 | 25.25842 | 55.35263 | 24 ft | 12 kts | 31° |
| 2026-04-21 04:39 | 25.25920 | 55.35316 | 24 ft | 14 kts | 31° |
| 2026-04-21 04:39 | 25.25993 | 55.35389 | 25 ft | 15 kts | 61° |
| 2026-04-21 04:39 | 25.26007 | 55.35504 | 24 ft | 16 kts | 102° |
| 2026-04-21 04:40 | 25.25956 | 55.35615 | 26 ft | 17 kts | 122° |
| 2026-04-21 04:40 | 25.25891 | 55.35730 | 25 ft | 18 kts | 122° |
| 2026-04-21 04:40 | 25.25823 | 55.35852 | 26 ft | 19 kts | 121° |
| 2026-04-21 04:40 | 25.25751 | 55.35979 | 26 ft | 20 kts | 122° |
| 2026-04-21 04:41 | 25.25675 | 55.36113 | 26 ft | 21 kts | 121° |
| 2026-04-21 04:41 | 25.25597 | 55.36253 | 28 ft | 22 kts | 121° |
| 2026-04-21 04:41 | 25.25515 | 55.36401 | 27 ft | 23 kts | 122° |
| 2026-04-21 04:41 | 25.25429 | 55.36554 | 25 ft | 24 kts | 122° |
| 2026-04-21 04:42 | 25.25338 | 55.36715 | 25 ft | 25 kts | 122° |
| 2026-04-21 04:42 | 25.25245 | 55.36881 | 25 ft | 26 kts | 122° |
| 2026-04-21 04:42 | 25.25150 | 55.37050 | 27 ft | 26 kts | 122° |
| 2026-04-21 04:42 | 25.25053 | 55.37221 | 26 ft | 27 kts | 122° |
| 2026-04-21 04:43 | 25.24954 | 55.37397 | 26 ft | 27 kts | 122° |
| 2026-04-21 04:43 | 25.24854 | 55.37575 | 28 ft | 26 kts | 122° |
| 2026-04-21 04:43 | 25.24778 | 55.37710 | 25 ft | 16 kts | 121° |
| 2026-04-21 04:43 | 25.24738 | 55.37783 | 25 ft | 8 kts | 121° |
| 2026-04-21 04:44 | 25.24711 | 55.37832 | 25 ft | 6 kts | 121° |
| 2026-04-21 04:44 | 25.24688 | 55.37874 | 27 ft | 7 kts | 121° |
| 2026-04-21 04:44 | 25.24664 | 55.37918 | 24 ft | 6 kts | 115° |
| 2026-04-21 04:44 | 25.24676 | 55.37961 | 25 ft | 6 kts | 44° |
| 2026-04-21 04:45 | 25.24691 | 55.37973 | 27 ft | 0 kts | 32° |
| 2026-04-21 04:46 | 25.24692 | 55.37973 | 28 ft | 0 kts | 32° |
| 2026-04-21 04:46 | 25.24698 | 55.37977 | 27 ft | 3 kts | 32° |
| 2026-04-21 04:46 | 25.24743 | 55.38008 | 27 ft | 10 kts | 32° |
| 2026-04-21 04:46 | 25.24801 | 55.38023 | 27 ft | 9 kts | 332° |
| 2026-04-21 04:47 | 25.24843 | 55.37959 | 27 ft | 15 kts | 301° |
| 2026-04-21 04:47 | 25.24943 | 55.37778 | 28 ft | 51 kts | 301° |
| 2026-04-21 04:47 | 25.25247 | 55.37232 | 30 ft | 114 kts | 301° |
| 2026-04-21 04:47 | 25.25757 | 55.36314 | 29 ft | 164 kts | 302° |
| 2026-04-21 04:48 | 25.26403 | 55.35168 | 357 ft | 178 kts | 302° |
| 2026-04-21 04:48 | 25.27043 | 55.34024 | 1008 ft | 175 kts | 306° |
| 2026-04-21 04:48 | 25.27705 | 55.32874 | 1588 ft | 179 kts | 304° |
| 2026-04-21 04:48 | 25.28364 | 55.31666 | 2070 ft | 187 kts | 303° |
| 2026-04-21 04:49 | 25.29031 | 55.30393 | 2483 ft | 202 kts | 302° |
| 2026-04-21 04:49 | 25.29681 | 55.28918 | 2869 ft | 220 kts | 290° |
| 2026-04-21 04:49 | 25.29921 | 55.27192 | 3366 ft | 236 kts | 275° |
| 2026-04-21 04:49 | 25.30005 | 55.25357 | 3991 ft | 238 kts | 274° |
| 2026-04-21 04:50 | 25.30073 | 55.23522 | 4578 ft | 246 kts | 274° |
| 2026-04-21 04:50 | 25.30203 | 55.21623 | 5219 ft | 249 kts | 276° |
| 2026-04-21 04:50 | 25.30346 | 55.19717 | 5966 ft | 248 kts | 275° |
| 2026-04-21 04:50 | 25.30406 | 55.17799 | 6530 ft | 257 kts | 267° |
| 2026-04-21 04:51 | 25.30216 | 55.15766 | 6857 ft | 274 kts | 265° |
| 2026-04-21 04:51 | 25.30026 | 55.13625 | 7371 ft | 281 kts | 266° |
| 2026-04-21 04:51 | 25.29848 | 55.11483 | 8108 ft | 281 kts | 266° |
| 2026-04-21 04:51 | 25.29680 | 55.09337 | 8826 ft | 281 kts | 266° |
| 2026-04-21 04:52 | 25.29519 | 55.07182 | 9598 ft | 281 kts | 266° |
| 2026-04-21 04:52 | 25.29359 | 55.05058 | 10271 ft | 283 kts | 266° |
| 2026-04-21 04:52 | 25.29194 | 55.02823 | 10581 ft | 301 kts | 266° |
| 2026-04-21 04:52 | 25.29020 | 55.00450 | 10842 ft | 318 kts | 266° |
| 2026-04-21 04:53 | 25.28838 | 54.97967 | 11270 ft | 327 kts | 265° |
| 2026-04-21 04:53 | 25.28656 | 54.95444 | 11969 ft | 329 kts | 266° |
| 2026-04-21 04:53 | 25.28570 | 54.92900 | 12596 ft | 334 kts | 268° |
| 2026-04-21 04:53 | 25.28491 | 54.90325 | 13278 ft | 337 kts | 268° |
| 2026-04-21 04:54 | 25.28407 | 54.87723 | 13917 ft | 341 kts | 268° |
| 2026-04-21 04:54 | 25.28320 | 54.85091 | 14550 ft | 343 kts | 268° |
| 2026-04-21 04:54 | 25.28243 | 54.82444 | 15210 ft | 346 kts | 268° |
| 2026-04-21 04:54 | 25.28166 | 54.79781 | 15843 ft | 349 kts | 268° |
| 2026-04-21 04:55 | 25.28086 | 54.77095 | 16469 ft | 351 kts | 268° |
| 2026-04-21 04:55 | 25.28176 | 54.74400 | 17059 ft | 355 kts | 280° |
| 2026-04-21 04:55 | 25.28804 | 54.71785 | 17666 ft | 357 kts | 283° |
| 2026-04-21 04:55 | 25.29444 | 54.69120 | 18196 ft | 361 kts | 283° |
| 2026-04-21 04:56 | 25.30104 | 54.66434 | 18700 ft | 363 kts | 283° |
| 2026-04-21 04:56 | 25.30778 | 54.63732 | 19198 ft | 366 kts | 283° |
| 2026-04-21 04:56 | 25.31461 | 54.61014 | 19701 ft | 368 kts | 284° |
| 2026-04-21 04:56 | 25.32150 | 54.58280 | 20199 ft | 370 kts | 283° |
| 2026-04-21 04:57 | 25.32843 | 54.55526 | 20679 ft | 373 kts | 283° |
| 2026-04-21 04:57 | 25.33568 | 54.52766 | 21149 ft | 376 kts | 285° |
| 2026-04-21 04:57 | 25.34321 | 54.49993 | 21621 ft | 378 kts | 284° |
| 2026-04-21 04:57 | 25.35077 | 54.47196 | 22073 ft | 381 kts | 284° |
| 2026-04-21 04:58 | 25.35829 | 54.44409 | 22520 ft | 384 kts | 284° |
| 2026-04-21 04:58 | 25.36593 | 54.41569 | 22972 ft | 386 kts | 284° |
| 2026-04-21 04:58 | 25.37359 | 54.38720 | 23407 ft | 389 kts | 284° |
| 2026-04-21 04:58 | 25.38132 | 54.35843 | 23778 ft | 391 kts | 284° |
| 2026-04-21 04:59 | 25.38909 | 54.32949 | 24157 ft | 393 kts | 284° |
| 2026-04-21 04:59 | 25.39690 | 54.30040 | 24529 ft | 395 kts | 284° |
| 2026-04-21 04:59 | 25.40446 | 54.27101 | 24909 ft | 397 kts | 283° |
| 2026-04-21 04:59 | 25.41178 | 54.24159 | 25264 ft | 399 kts | 284° |
| 2026-04-21 05:00 | 25.41920 | 54.21191 | 25646 ft | 401 kts | 284° |
| 2026-04-21 05:00 | 25.42666 | 54.18208 | 26008 ft | 403 kts | 284° |
| 2026-04-21 05:00 | 25.44167 | 54.12202 | 26715 ft | 407 kts | 284° |
| 2026-04-21 05:01 | 25.44908 | 54.09168 | 27072 ft | 409 kts | 283° |
| 2026-04-21 05:01 | 25.45643 | 54.06116 | 27394 ft | 411 kts | 283° |
| 2026-04-21 05:01 | 25.46382 | 54.03051 | 27740 ft | 413 kts | 283° |
| 2026-04-21 05:01 | 25.47124 | 53.99971 | 28071 ft | 415 kts | 283° |
| 2026-04-21 05:02 | 25.47866 | 53.96887 | 28392 ft | 417 kts | 283° |
| 2026-04-21 05:02 | 25.48615 | 53.93775 | 28703 ft | 420 kts | 283° |
| 2026-04-21 05:02 | 25.49369 | 53.90639 | 29023 ft | 422 kts | 283° |
| 2026-04-21 05:02 | 25.50123 | 53.87498 | 29346 ft | 423 kts | 283° |
| 2026-04-21 05:03 | 25.50868 | 53.84392 | 29652 ft | 425 kts | 283° |
| 2026-04-21 05:03 | 25.51628 | 53.81221 | 29950 ft | 427 kts | 283° |
| 2026-04-21 05:03 | 25.52391 | 53.78034 | 30220 ft | 429 kts | 283° |
| 2026-04-21 05:03 | 25.53159 | 53.74825 | 30518 ft | 430 kts | 283° |
| 2026-04-21 05:04 | 25.53922 | 53.71638 | 30873 ft | 429 kts | 283° |
| 2026-04-21 05:04 | 25.54686 | 53.68449 | 31273 ft | 427 kts | 283° |
| 2026-04-21 05:04 | 25.55443 | 53.65282 | 31691 ft | 425 kts | 283° |
| 2026-04-21 05:04 | 25.56195 | 53.62132 | 31877 ft | 422 kts | 282° |
| 2026-04-21 05:05 | 25.57681 | 53.55898 | 31874 ft | 417 kts | 282° |
| 2026-04-21 05:05 | 25.59161 | 53.49680 | 31871 ft | 417 kts | 282° |
| 2026-04-21 05:06 | 25.60638 | 53.43463 | 31870 ft | 417 kts | 282° |
| 2026-04-21 05:06 | 25.62101 | 53.37282 | 31870 ft | 417 kts | 282° |
| 2026-04-21 05:07 | 25.63569 | 53.31061 | 31870 ft | 417 kts | 282° |
| 2026-04-21 05:07 | 25.65035 | 53.24840 | 31866 ft | 417 kts | 282° |
| 2026-04-21 05:08 | 25.66496 | 53.18622 | 31887 ft | 417 kts | 282° |
| 2026-04-21 05:08 | 25.67979 | 53.12401 | 31877 ft | 416 kts | 281° |
| 2026-04-21 05:09 | 25.69407 | 53.06157 | 31887 ft | 418 kts | 282° |
| 2026-04-21 05:09 | 25.71225 | 53.00040 | 31871 ft | 422 kts | 295° |
| 2026-04-21 05:10 | 25.73928 | 52.94315 | 31861 ft | 422 kts | 294° |
| 2026-04-21 05:10 | 25.76640 | 52.88550 | 31869 ft | 422 kts | 294° |
| 2026-04-21 05:11 | 25.79381 | 52.82740 | 31867 ft | 422 kts | 294° |
| 2026-04-21 05:11 | 25.82084 | 52.77005 | 31868 ft | 422 kts | 294° |
| 2026-04-21 05:12 | 25.84802 | 52.71232 | 31864 ft | 421 kts | 294° |
| 2026-04-21 05:12 | 25.87521 | 52.65448 | 31872 ft | 421 kts | 294° |
| 2026-04-21 05:13 | 25.90175 | 52.59701 | 31871 ft | 420 kts | 292° |
| 2026-04-21 05:13 | 25.92744 | 52.53882 | 31875 ft | 420 kts | 293° |
| 2026-04-21 05:14 | 25.95318 | 52.48071 | 31886 ft | 418 kts | 292° |
| 2026-04-21 05:14 | 25.97881 | 52.42278 | 31876 ft | 418 kts | 292° |
| 2026-04-21 05:15 | 26.00465 | 52.36488 | 31875 ft | 418 kts | 292° |
| 2026-04-21 05:15 | 26.03049 | 52.30698 | 31875 ft | 418 kts | 292° |
| 2026-04-21 05:16 | 26.05632 | 52.24902 | 31874 ft | 417 kts | 292° |
| 2026-04-21 05:16 | 26.07772 | 52.20096 | 31885 ft | 417 kts | 292° |
| 2026-04-21 05:17 | 26.10337 | 52.14326 | 31884 ft | 417 kts | 292° |
| 2026-04-21 05:17 | 26.12911 | 52.08529 | 31885 ft | 418 kts | 292° |
| 2026-04-21 05:18 | 26.15486 | 52.02725 | 31882 ft | 417 kts | 292° |
| 2026-04-21 05:18 | 26.18067 | 51.96956 | 31887 ft | 416 kts | 292° |
| 2026-04-21 05:19 | 26.20641 | 51.91171 | 31888 ft | 416 kts | 292° |
| 2026-04-21 05:19 | 26.23177 | 51.85430 | 31890 ft | 416 kts | 292° |
| 2026-04-21 05:20 | 26.25751 | 51.79625 | 31892 ft | 419 kts | 292° |
| 2026-04-21 05:20 | 26.28341 | 51.73811 | 31891 ft | 418 kts | 292° |
| 2026-04-21 05:21 | 26.30921 | 51.68011 | 31891 ft | 418 kts | 292° |
| 2026-04-21 05:21 | 26.33514 | 51.62196 | 31894 ft | 418 kts | 292° |
| 2026-04-21 05:22 | 26.36099 | 51.56391 | 31891 ft | 418 kts | 292° |
| 2026-04-21 05:22 | 26.38446 | 51.50496 | 31898 ft | 414 kts | 287° |
| 2026-04-21 05:23 | 26.40388 | 51.44481 | 31891 ft | 415 kts | 286° |
| 2026-04-21 05:23 | 26.42327 | 51.38416 | 31890 ft | 415 kts | 286° |
| 2026-04-21 05:24 | 26.44272 | 51.32335 | 31891 ft | 415 kts | 287° |
| 2026-04-21 05:24 | 26.46205 | 51.26284 | 31888 ft | 413 kts | 287° |
| 2026-04-21 05:25 | 26.48131 | 51.20248 | 31886 ft | 413 kts | 287° |
| 2026-04-21 05:25 | 26.50052 | 51.14214 | 31911 ft | 413 kts | 286° |
| 2026-04-21 05:26 | 26.51979 | 51.08157 | 31893 ft | 414 kts | 286° |
| 2026-04-21 05:26 | 26.53890 | 51.02138 | 31885 ft | 414 kts | 286° |
| 2026-04-21 05:27 | 26.55821 | 50.96044 | 31886 ft | 414 kts | 286° |
| 2026-04-21 05:27 | 26.57715 | 50.90018 | 31885 ft | 414 kts | 285° |
| 2026-04-21 05:28 | 26.59600 | 50.83949 | 31891 ft | 413 kts | 286° |
| 2026-04-21 05:28 | 26.61479 | 50.77889 | 31904 ft | 412 kts | 285° |
| 2026-04-21 05:29 | 26.63352 | 50.71844 | 31885 ft | 411 kts | 285° |
| 2026-04-21 05:29 | 26.65173 | 50.65790 | 31888 ft | 411 kts | 285° |
| 2026-04-21 05:30 | 26.66964 | 50.59767 | 31890 ft | 412 kts | 285° |
| 2026-04-21 05:30 | 26.68773 | 50.53676 | 31903 ft | 412 kts | 285° |
| 2026-04-21 05:31 | 26.70516 | 50.47574 | 31901 ft | 411 kts | 283° |
| 2026-04-21 05:31 | 26.72098 | 50.41426 | 31902 ft | 411 kts | 283° |
| 2026-04-21 05:32 | 26.73688 | 50.35301 | 31918 ft | 408 kts | 283° |
| 2026-04-21 05:32 | 26.75269 | 50.29208 | 31902 ft | 408 kts | 283° |
| 2026-04-21 05:33 | 26.77041 | 50.23160 | 31910 ft | 409 kts | 285° |
| 2026-04-21 05:33 | 26.78824 | 50.17160 | 31910 ft | 408 kts | 285° |
| 2026-04-21 05:34 | 26.80609 | 50.11122 | 31902 ft | 408 kts | 285° |
| 2026-04-21 05:34 | 26.82390 | 50.05086 | 31915 ft | 408 kts | 285° |
| 2026-04-21 05:35 | 26.84175 | 49.99052 | 31919 ft | 408 kts | 285° |
| 2026-04-21 05:35 | 26.85954 | 49.93053 | 31918 ft | 409 kts | 285° |
| 2026-04-21 05:36 | 26.87742 | 49.87010 | 31907 ft | 408 kts | 285° |
| 2026-04-21 05:36 | 26.89525 | 49.80977 | 31907 ft | 408 kts | 285° |
| 2026-04-21 05:37 | 26.91307 | 49.74937 | 31911 ft | 408 kts | 285° |
| 2026-04-21 05:37 | 26.93082 | 49.68908 | 31901 ft | 407 kts | 285° |
| 2026-04-21 05:38 | 26.94855 | 49.62875 | 31919 ft | 407 kts | 284° |
| 2026-04-21 05:38 | 26.96624 | 49.56846 | 31906 ft | 408 kts | 284° |
| 2026-04-21 05:39 | 26.98394 | 49.50805 | 31900 ft | 408 kts | 284° |
| 2026-04-21 05:39 | 27.00160 | 49.44765 | 31904 ft | 408 kts | 284° |
| 2026-04-21 05:40 | 27.02362 | 49.38939 | 31921 ft | 413 kts | 295° |
| 2026-04-21 05:40 | 27.05183 | 49.33312 | 31907 ft | 413 kts | 295° |
| 2026-04-21 05:41 | 27.08006 | 49.27691 | 31900 ft | 414 kts | 295° |
| 2026-04-21 05:41 | 27.10843 | 49.22047 | 31912 ft | 415 kts | 295° |
| 2026-04-21 05:42 | 27.13677 | 49.16401 | 31914 ft | 415 kts | 295° |
| 2026-04-21 05:42 | 27.16493 | 49.10783 | 31914 ft | 415 kts | 295° |
| 2026-04-21 05:43 | 27.19316 | 49.05144 | 31925 ft | 415 kts | 294° |
| 2026-04-21 05:43 | 27.22151 | 48.99474 | 31914 ft | 416 kts | 294° |
| 2026-04-21 05:44 | 27.24983 | 48.93797 | 31920 ft | 416 kts | 294° |
| 2026-04-21 05:44 | 27.27811 | 48.88122 | 31918 ft | 416 kts | 294° |
| 2026-04-21 05:45 | 27.30641 | 48.82437 | 31920 ft | 416 kts | 294° |
| 2026-04-21 05:45 | 27.33459 | 48.76765 | 31938 ft | 415 kts | 294° |
| 2026-04-21 05:46 | 27.36267 | 48.71108 | 31929 ft | 414 kts | 294° |
| 2026-04-21 05:46 | 27.39069 | 48.65456 | 31929 ft | 414 kts | 294° |
| 2026-04-21 05:47 | 27.41874 | 48.59789 | 31961 ft | 415 kts | 294° |
| 2026-04-21 05:47 | 27.44679 | 48.54116 | 31913 ft | 414 kts | 294° |
| 2026-04-21 05:48 | 27.47474 | 48.48455 | 31937 ft | 412 kts | 293° |
| 2026-04-21 05:48 | 27.50235 | 48.42854 | 31920 ft | 411 kts | 293° |
| 2026-04-21 05:49 | 27.53012 | 48.37215 | 31933 ft | 412 kts | 293° |
| 2026-04-21 05:49 | 27.55786 | 48.31575 | 31936 ft | 412 kts | 293° |
| 2026-04-21 05:50 | 27.58565 | 48.25925 | 31968 ft | 412 kts | 292° |
| 2026-04-21 05:50 | 27.61481 | 48.20435 | 31899 ft | 410 kts | 302° |
| 2026-04-21 05:51 | 27.63120 | 48.17821 | 31846 ft | 405 kts | 289° |
| 2026-04-21 05:51 | 27.64197 | 48.14920 | 31946 ft | 403 kts | 289° |
| 2026-04-21 05:51 | 27.66782 | 48.09292 | 31966 ft | 408 kts | 292° |
| 2026-04-21 05:52 | 27.69504 | 48.03638 | 31938 ft | 407 kts | 292° |
| 2026-04-21 05:52 | 27.72228 | 47.98038 | 31954 ft | 405 kts | 292° |
| 2026-04-21 05:53 | 27.74938 | 47.92475 | 31937 ft | 404 kts | 292° |
| 2026-04-21 05:53 | 27.77625 | 47.86953 | 31944 ft | 404 kts | 292° |
| 2026-04-21 05:54 | 27.80327 | 47.81393 | 31936 ft | 404 kts | 292° |
| 2026-04-21 05:54 | 27.83026 | 47.75831 | 31944 ft | 402 kts | 292° |
| 2026-04-21 05:55 | 27.85153 | 47.70077 | 32084 ft | 395 kts | 281° |
| 2026-04-21 05:55 | 27.86118 | 47.67128 | 31807 ft | 401 kts | 287° |
| 2026-04-21 05:55 | 27.87071 | 47.64196 | 31980 ft | 399 kts | 284° |
| 2026-04-21 05:56 | 27.88933 | 47.58234 | 31941 ft | 402 kts | 284° |
| 2026-04-21 05:56 | 27.90758 | 47.52350 | 31932 ft | 398 kts | 284° |
| 2026-04-21 05:57 | 27.92589 | 47.46432 | 31931 ft | 398 kts | 284° |
| 2026-04-21 05:57 | 27.94447 | 47.40529 | 31959 ft | 400 kts | 286° |
| 2026-04-21 05:58 | 27.96293 | 47.34632 | 31925 ft | 395 kts | 282° |
| 2026-04-21 05:58 | 27.98045 | 47.28771 | 31928 ft | 394 kts | 283° |
| 2026-04-21 05:59 | 27.99833 | 47.22918 | 31928 ft | 394 kts | 283° |
| 2026-04-21 06:00 | 28.02512 | 47.14174 | 31927 ft | 392 kts | 283° |
| 2026-04-21 06:00 | 28.04297 | 47.08338 | 31933 ft | 392 kts | 282° |
| 2026-04-21 06:01 | 28.06079 | 47.02502 | 31929 ft | 393 kts | 282° |
| 2026-04-21 06:01 | 28.07863 | 46.96652 | 31931 ft | 393 kts | 282° |
| 2026-04-21 06:02 | 28.09645 | 46.90799 | 31922 ft | 393 kts | 282° |
| 2026-04-21 06:02 | 28.11548 | 46.84970 | 31928 ft | 395 kts | 284° |
| 2026-04-21 06:03 | 28.13490 | 46.79158 | 31936 ft | 395 kts | 284° |
| 2026-04-21 06:03 | 28.15415 | 46.73375 | 31923 ft | 395 kts | 284° |
| 2026-04-21 06:04 | 28.17349 | 46.67550 | 31925 ft | 395 kts | 284° |
| 2026-04-21 06:04 | 28.19281 | 46.61724 | 31919 ft | 395 kts | 284° |
| 2026-04-21 06:05 | 28.21212 | 46.55891 | 31924 ft | 395 kts | 284° |
| 2026-04-21 06:05 | 28.23138 | 46.50062 | 31918 ft | 394 kts | 284° |
| 2026-04-21 06:06 | 28.24737 | 46.45218 | 31921 ft | 394 kts | 284° |
| 2026-04-21 06:06 | 28.26658 | 46.39387 | 31923 ft | 394 kts | 284° |
| 2026-04-21 06:07 | 28.28576 | 46.33558 | 31931 ft | 394 kts | 284° |
| 2026-04-21 06:07 | 28.30486 | 46.27741 | 31934 ft | 393 kts | 284° |
| 2026-04-21 06:08 | 28.32390 | 46.21935 | 31944 ft | 393 kts | 284° |
| 2026-04-21 06:08 | 28.34284 | 46.16150 | 31941 ft | 393 kts | 284° |
| 2026-04-21 06:09 | 28.36279 | 46.10371 | 31941 ft | 395 kts | 287° |
| 2026-04-21 06:09 | 28.38435 | 46.04634 | 31940 ft | 395 kts | 286° |
| 2026-04-21 06:10 | 28.40571 | 45.98892 | 31938 ft | 394 kts | 286° |
| 2026-04-21 06:10 | 28.42699 | 45.93160 | 31933 ft | 393 kts | 286° |
| 2026-04-21 06:11 | 28.44818 | 45.87441 | 31915 ft | 392 kts | 286° |
| 2026-04-21 06:11 | 28.46937 | 45.81715 | 31913 ft | 393 kts | 286° |
| 2026-04-21 06:12 | 28.49052 | 45.75992 | 31928 ft | 393 kts | 286° |
| 2026-04-21 06:12 | 28.51153 | 45.70296 | 31914 ft | 390 kts | 286° |
| 2026-04-21 06:13 | 28.53254 | 45.64589 | 31940 ft | 390 kts | 286° |
| 2026-04-21 06:13 | 28.55333 | 45.58936 | 31917 ft | 389 kts | 286° |
| 2026-04-21 06:14 | 28.57415 | 45.53266 | 31918 ft | 388 kts | 286° |
| 2026-04-21 06:14 | 28.59496 | 45.47590 | 31916 ft | 388 kts | 286° |
| 2026-04-21 06:15 | 28.61570 | 45.41926 | 31914 ft | 388 kts | 286° |
| 2026-04-21 06:15 | 28.63642 | 45.36257 | 31930 ft | 387 kts | 286° |
| 2026-04-21 06:16 | 28.65702 | 45.30613 | 31920 ft | 385 kts | 286° |
| 2026-04-21 06:16 | 28.67758 | 45.24970 | 31916 ft | 386 kts | 286° |
| 2026-04-21 06:17 | 28.69812 | 45.19326 | 31909 ft | 386 kts | 286° |
| 2026-04-21 06:17 | 28.71859 | 45.13690 | 31914 ft | 384 kts | 286° |
| 2026-04-21 06:18 | 28.73883 | 45.08110 | 31921 ft | 383 kts | 286° |
| 2026-04-21 06:18 | 28.75911 | 45.02509 | 31910 ft | 382 kts | 285° |
| 2026-04-21 06:19 | 28.77937 | 44.96907 | 31921 ft | 382 kts | 285° |
| 2026-04-21 06:19 | 28.79956 | 44.91315 | 31915 ft | 381 kts | 285° |
| 2026-04-21 06:20 | 28.81977 | 44.85712 | 31912 ft | 381 kts | 285° |
| 2026-04-21 06:20 | 28.83992 | 44.80116 | 31914 ft | 382 kts | 285° |
| 2026-04-21 06:21 | 28.86070 | 44.74552 | 31902 ft | 387 kts | 293° |
| 2026-04-21 06:21 | 28.89174 | 44.69436 | 31895 ft | 393 kts | 296° |
| 2026-04-21 06:22 | 28.92307 | 44.64326 | 31916 ft | 393 kts | 296° |
| 2026-04-21 06:22 | 28.95457 | 44.59213 | 31927 ft | 393 kts | 296° |
| 2026-04-21 06:23 | 28.98605 | 44.54103 | 31918 ft | 393 kts | 296° |
| 2026-04-21 06:23 | 29.01724 | 44.49033 | 31916 ft | 393 kts | 296° |
| 2026-04-21 06:24 | 29.04864 | 44.43924 | 31915 ft | 392 kts | 296° |
| 2026-04-21 06:24 | 29.07996 | 44.38820 | 31921 ft | 393 kts | 296° |
| 2026-04-21 06:25 | 29.11130 | 44.33709 | 31916 ft | 392 kts | 296° |
| 2026-04-21 06:25 | 29.14262 | 44.28592 | 31914 ft | 393 kts | 296° |
| 2026-04-21 06:26 | 29.17393 | 44.23472 | 31916 ft | 392 kts | 296° |
| 2026-04-21 06:26 | 29.20516 | 44.18360 | 31915 ft | 392 kts | 296° |
| 2026-04-21 06:27 | 29.23634 | 44.13248 | 31913 ft | 391 kts | 296° |
| 2026-04-21 06:27 | 29.26751 | 44.08131 | 31930 ft | 392 kts | 296° |
| 2026-04-21 06:28 | 29.29873 | 44.03001 | 31919 ft | 393 kts | 296° |
| 2026-04-21 06:28 | 29.32997 | 43.97861 | 31919 ft | 392 kts | 296° |
| 2026-04-21 06:29 | 29.36093 | 43.92761 | 31915 ft | 392 kts | 296° |
| 2026-04-21 06:29 | 29.39227 | 43.87591 | 31913 ft | 392 kts | 296° |
| 2026-04-21 06:30 | 29.42338 | 43.82452 | 31930 ft | 392 kts | 296° |
| 2026-04-21 06:30 | 29.45425 | 43.77347 | 31915 ft | 392 kts | 296° |
| 2026-04-21 06:31 | 29.48533 | 43.72201 | 31917 ft | 392 kts | 296° |
| 2026-04-21 06:31 | 29.51635 | 43.67059 | 31920 ft | 392 kts | 296° |
| 2026-04-21 06:32 | 29.54736 | 43.61913 | 31953 ft | 392 kts | 296° |
| 2026-04-21 06:32 | 29.57831 | 43.56771 | 31940 ft | 391 kts | 296° |
| 2026-04-21 06:33 | 29.60924 | 43.51626 | 31938 ft | 391 kts | 296° |
| 2026-04-21 06:33 | 29.63862 | 43.46451 | 31939 ft | 389 kts | 295° |
| 2026-04-21 06:34 | 29.66798 | 43.41218 | 31954 ft | 389 kts | 295° |
| 2026-04-21 06:34 | 29.69737 | 43.35982 | 31938 ft | 389 kts | 295° |
| 2026-04-21 06:35 | 29.72675 | 43.30743 | 31935 ft | 389 kts | 295° |
| 2026-04-21 06:35 | 29.75608 | 43.25505 | 31932 ft | 389 kts | 295° |
| 2026-04-21 06:36 | 29.78518 | 43.20303 | 31942 ft | 389 kts | 295° |
| 2026-04-21 06:36 | 29.81445 | 43.15063 | 31935 ft | 389 kts | 295° |
| 2026-04-21 06:37 | 29.84374 | 43.09813 | 31937 ft | 389 kts | 295° |
| 2026-04-21 06:37 | 29.87297 | 43.04567 | 31935 ft | 389 kts | 295° |
| 2026-04-21 06:38 | 29.90220 | 42.99314 | 31949 ft | 389 kts | 295° |
| 2026-04-21 06:38 | 29.93116 | 42.94102 | 31936 ft | 389 kts | 295° |
| 2026-04-21 06:39 | 29.96036 | 42.88842 | 31962 ft | 389 kts | 295° |
| 2026-04-21 06:39 | 29.98955 | 42.83576 | 31942 ft | 390 kts | 295° |
| 2026-04-21 06:40 | 30.01874 | 42.78302 | 31940 ft | 390 kts | 295° |
| 2026-04-21 06:40 | 30.04793 | 42.73021 | 31941 ft | 390 kts | 295° |
| 2026-04-21 06:41 | 30.07708 | 42.67741 | 31944 ft | 390 kts | 295° |
| 2026-04-21 06:41 | 30.10605 | 42.62488 | 31945 ft | 390 kts | 295° |
| 2026-04-21 06:42 | 30.13513 | 42.57207 | 31951 ft | 390 kts | 295° |
| 2026-04-21 06:42 | 30.16415 | 42.51930 | 31948 ft | 389 kts | 295° |
| 2026-04-21 06:43 | 30.19319 | 42.46643 | 31956 ft | 389 kts | 295° |
| 2026-04-21 06:43 | 30.22219 | 42.41355 | 31952 ft | 389 kts | 295° |
| 2026-04-21 06:44 | 30.25118 | 42.36062 | 31968 ft | 389 kts | 295° |
| 2026-04-21 06:44 | 30.28017 | 42.30763 | 31959 ft | 389 kts | 295° |
| 2026-04-21 06:45 | 30.30909 | 42.25469 | 31958 ft | 389 kts | 295° |
| 2026-04-21 06:45 | 30.33783 | 42.20202 | 31967 ft | 389 kts | 295° |
| 2026-04-21 06:46 | 30.36690 | 42.14867 | 31953 ft | 389 kts | 295° |
| 2026-04-21 06:46 | 30.39559 | 42.09594 | 31958 ft | 389 kts | 295° |
| 2026-04-21 06:47 | 30.42441 | 42.04290 | 31961 ft | 389 kts | 295° |
| 2026-04-21 06:47 | 30.45322 | 41.98982 | 31962 ft | 389 kts | 295° |
| 2026-04-21 06:48 | 30.48202 | 41.93669 | 31971 ft | 389 kts | 296° |
| 2026-04-21 06:48 | 30.51082 | 41.88347 | 31968 ft | 389 kts | 296° |
| 2026-04-21 06:49 | 30.53961 | 41.83021 | 31974 ft | 389 kts | 296° |
| 2026-04-21 06:49 | 30.56829 | 41.77707 | 31971 ft | 389 kts | 296° |
| 2026-04-21 06:50 | 30.59698 | 41.72386 | 31976 ft | 388 kts | 296° |
| 2026-04-21 06:50 | 30.62562 | 41.67065 | 31977 ft | 389 kts | 296° |
| 2026-04-21 06:51 | 30.65407 | 41.61774 | 31975 ft | 389 kts | 296° |
| 2026-04-21 06:51 | 30.68267 | 41.56446 | 31979 ft | 389 kts | 296° |
| 2026-04-21 06:52 | 30.71124 | 41.51118 | 31982 ft | 387 kts | 296° |
| 2026-04-21 06:52 | 30.73967 | 41.45809 | 31982 ft | 387 kts | 296° |
| 2026-04-21 06:53 | 30.76334 | 41.41383 | 31980 ft | 387 kts | 296° |
| 2026-04-21 06:53 | 30.79176 | 41.36062 | 31984 ft | 387 kts | 296° |
| 2026-04-21 06:54 | 30.82018 | 41.30737 | 31990 ft | 387 kts | 296° |
| 2026-04-21 06:54 | 30.84846 | 41.25430 | 31989 ft | 386 kts | 296° |
| 2026-04-21 06:55 | 30.87678 | 41.20108 | 31993 ft | 386 kts | 296° |
| 2026-04-21 06:55 | 30.90498 | 41.14788 | 31991 ft | 385 kts | 294° |
| 2026-04-21 06:56 | 30.92991 | 41.09328 | 31999 ft | 384 kts | 293° |
| 2026-04-21 06:56 | 30.95509 | 41.03861 | 31994 ft | 383 kts | 293° |
| 2026-04-21 06:57 | 30.98037 | 40.98386 | 31990 ft | 383 kts | 293° |
| 2026-04-21 06:57 | 31.00563 | 40.92910 | 31993 ft | 383 kts | 293° |
| 2026-04-21 06:58 | 31.03085 | 40.87435 | 31995 ft | 383 kts | 293° |
| 2026-04-21 06:58 | 31.05587 | 40.81994 | 31995 ft | 383 kts | 293° |
| 2026-04-21 06:59 | 31.08098 | 40.76527 | 31992 ft | 383 kts | 293° |
| 2026-04-21 06:59 | 31.10611 | 40.71048 | 31996 ft | 383 kts | 293° |
| 2026-04-21 07:00 | 31.13119 | 40.65571 | 31996 ft | 383 kts | 293° |
| 2026-04-21 07:00 | 31.15627 | 40.60086 | 31998 ft | 382 kts | 293° |
| 2026-04-21 07:01 | 31.18129 | 40.54607 | 32004 ft | 382 kts | 293° |
| 2026-04-21 07:01 | 31.21859 | 40.46424 | 32014 ft | 382 kts | 293° |
| 2026-04-21 07:02 | 31.24356 | 40.40935 | 32002 ft | 382 kts | 293° |
| 2026-04-21 07:02 | 31.26846 | 40.35454 | 32004 ft | 382 kts | 293° |
| 2026-04-21 07:03 | 31.29336 | 40.29965 | 32003 ft | 382 kts | 293° |
| 2026-04-21 07:03 | 31.31820 | 40.24482 | 32023 ft | 382 kts | 293° |
| 2026-04-21 07:04 | 31.34291 | 40.19019 | 32009 ft | 381 kts | 293° |
| 2026-04-21 07:04 | 31.36766 | 40.13538 | 32006 ft | 381 kts | 293° |
| 2026-04-21 07:05 | 31.39243 | 40.08047 | 32004 ft | 381 kts | 293° |
| 2026-04-21 07:05 | 31.41717 | 40.02552 | 32023 ft | 381 kts | 293° |
| 2026-04-21 07:06 | 31.44183 | 39.97069 | 32009 ft | 380 kts | 293° |
| 2026-04-21 07:06 | 31.46644 | 39.91588 | 32008 ft | 380 kts | 293° |
| 2026-04-21 07:07 | 31.49106 | 39.86097 | 32007 ft | 380 kts | 293° |
| 2026-04-21 07:07 | 31.51563 | 39.80607 | 32007 ft | 380 kts | 293° |
| 2026-04-21 07:08 | 31.54010 | 39.75133 | 32009 ft | 379 kts | 293° |
| 2026-04-21 07:08 | 31.56437 | 39.69696 | 32007 ft | 379 kts | 293° |
| 2026-04-21 07:09 | 31.58884 | 39.64206 | 32007 ft | 379 kts | 293° |
| 2026-04-21 07:09 | 31.61320 | 39.58730 | 32007 ft | 378 kts | 293° |
| 2026-04-21 07:10 | 31.63752 | 39.53259 | 32009 ft | 378 kts | 293° |
| 2026-04-21 07:10 | 31.66178 | 39.47792 | 32003 ft | 378 kts | 293° |
| 2026-04-21 07:11 | 31.68586 | 39.42356 | 32006 ft | 377 kts | 293° |
| 2026-04-21 07:11 | 31.71007 | 39.36885 | 32009 ft | 377 kts | 293° |
| 2026-04-21 07:12 | 31.73426 | 39.31410 | 32020 ft | 377 kts | 293° |
| 2026-04-21 07:12 | 31.75837 | 39.25948 | 32017 ft | 377 kts | 293° |
| 2026-04-21 07:13 | 31.78247 | 39.20479 | 32015 ft | 376 kts | 293° |
| 2026-04-21 07:13 | 31.79618 | 39.17851 | 31997 ft | 383 kts | 304° |
| 2026-04-21 07:13 | 31.81601 | 39.15762 | 32035 ft | 396 kts | 319° |
| 2026-04-21 07:14 | 31.86540 | 39.12641 | 32014 ft | 405 kts | 324° |
| 2026-04-21 07:14 | 31.91559 | 39.09628 | 32012 ft | 404 kts | 324° |
| 2026-04-21 07:15 | 31.96589 | 39.06649 | 32014 ft | 404 kts | 324° |
| 2026-04-21 07:15 | 32.01619 | 39.03673 | 32010 ft | 405 kts | 324° |
| 2026-04-21 07:16 | 32.06653 | 39.00708 | 32009 ft | 405 kts | 324° |
| 2026-04-21 07:16 | 32.11662 | 38.97755 | 32017 ft | 405 kts | 324° |
| 2026-04-21 07:17 | 32.16707 | 38.94776 | 32015 ft | 405 kts | 324° |
| 2026-04-21 07:17 | 32.21742 | 38.91799 | 32015 ft | 405 kts | 324° |
| 2026-04-21 07:18 | 32.26787 | 38.88812 | 32032 ft | 405 kts | 324° |
| 2026-04-21 07:18 | 32.31827 | 38.85826 | 32018 ft | 405 kts | 324° |
| 2026-04-21 07:19 | 32.36865 | 38.82836 | 32050 ft | 405 kts | 325° |
| 2026-04-21 07:19 | 32.41920 | 38.79833 | 32024 ft | 406 kts | 325° |
| 2026-04-21 07:20 | 32.46970 | 38.76828 | 32019 ft | 406 kts | 324° |
| 2026-04-21 07:20 | 32.52022 | 38.73819 | 32023 ft | 406 kts | 324° |
| 2026-04-21 07:21 | 32.57036 | 38.70829 | 32023 ft | 406 kts | 324° |
| 2026-04-21 07:21 | 32.62087 | 38.67814 | 32023 ft | 406 kts | 324° |
| 2026-04-21 07:22 | 32.67141 | 38.64795 | 32033 ft | 408 kts | 325° |
| 2026-04-21 07:22 | 32.72228 | 38.61752 | 32025 ft | 409 kts | 325° |
| 2026-04-21 07:23 | 32.77314 | 38.58705 | 32024 ft | 409 kts | 325° |
| 2026-04-21 07:23 | 32.82396 | 38.55657 | 32022 ft | 409 kts | 325° |
| 2026-04-21 07:24 | 32.87474 | 38.52608 | 32023 ft | 409 kts | 325° |
| 2026-04-21 07:24 | 32.92560 | 38.49550 | 32030 ft | 411 kts | 326° |
| 2026-04-21 07:25 | 32.97671 | 38.46472 | 32026 ft | 412 kts | 326° |
| 2026-04-21 07:25 | 33.02778 | 38.43391 | 32020 ft | 411 kts | 326° |
| 2026-04-21 07:26 | 33.07888 | 38.40306 | 32021 ft | 412 kts | 326° |
| 2026-04-21 07:26 | 33.12979 | 38.37228 | 31985 ft | 405 kts | 326° |
| 2026-04-21 07:27 | 33.15428 | 38.35749 | 31767 ft | 395 kts | 325° |
| 2026-04-21 07:27 | 33.17853 | 38.34284 | 31541 ft | 385 kts | 326° |
| 2026-04-21 07:27 | 33.20227 | 38.32848 | 31304 ft | 381 kts | 325° |
| 2026-04-21 07:27 | 33.22586 | 38.31412 | 31075 ft | 379 kts | 325° |
| 2026-04-21 07:28 | 33.24931 | 38.29983 | 30838 ft | 378 kts | 325° |
| 2026-04-21 07:28 | 33.27271 | 38.28557 | 30619 ft | 377 kts | 325° |
| 2026-04-21 07:28 | 33.29604 | 38.27134 | 30394 ft | 375 kts | 326° |
| 2026-04-21 07:28 | 33.31924 | 38.25718 | 30164 ft | 374 kts | 326° |
| 2026-04-21 07:29 | 33.34234 | 38.24308 | 29911 ft | 373 kts | 326° |
| 2026-04-21 07:29 | 33.36543 | 38.22898 | 29619 ft | 370 kts | 326° |
| 2026-04-21 07:29 | 33.38832 | 38.21499 | 29038 ft | 370 kts | 326° |
| 2026-04-21 07:29 | 33.41105 | 38.20068 | 28489 ft | 366 kts | 321° |
| 2026-04-21 07:30 | 33.42986 | 38.18125 | 27942 ft | 352 kts | 303° |
| 2026-04-21 07:30 | 33.44160 | 38.15635 | 27551 ft | 339 kts | 286° |
| 2026-04-21 07:30 | 33.44653 | 38.12922 | 27194 ft | 331 kts | 274° |
| 2026-04-21 07:30 | 33.44788 | 38.10183 | 26799 ft | 328 kts | 271° |
| 2026-04-21 07:31 | 33.44825 | 38.07506 | 26398 ft | 325 kts | 269° |
| 2026-04-21 07:31 | 33.44792 | 38.04797 | 25998 ft | 323 kts | 268° |
| 2026-04-21 07:31 | 33.44717 | 38.02114 | 25591 ft | 322 kts | 267° |
| 2026-04-21 07:31 | 33.44619 | 37.99448 | 25208 ft | 320 kts | 267° |
| 2026-04-21 07:32 | 33.44509 | 37.96791 | 24834 ft | 318 kts | 266° |
| 2026-04-21 07:32 | 33.44391 | 37.94152 | 24463 ft | 317 kts | 266° |
| 2026-04-21 07:32 | 33.44268 | 37.91526 | 24099 ft | 315 kts | 266° |
| 2026-04-21 07:32 | 33.44143 | 37.88914 | 23745 ft | 313 kts | 266° |
| 2026-04-21 07:33 | 33.44016 | 37.86313 | 23342 ft | 312 kts | 266° |
| 2026-04-21 07:33 | 33.43890 | 37.83730 | 22950 ft | 309 kts | 266° |
| 2026-04-21 07:33 | 33.43764 | 37.81172 | 22581 ft | 306 kts | 266° |
| 2026-04-21 07:33 | 33.43639 | 37.78638 | 22234 ft | 303 kts | 266° |
| 2026-04-21 07:34 | 33.43515 | 37.76131 | 21899 ft | 301 kts | 266° |
| 2026-04-21 07:34 | 33.43389 | 37.73612 | 21545 ft | 306 kts | 266° |
| 2026-04-21 07:34 | 33.43261 | 37.71052 | 21148 ft | 310 kts | 266° |
| 2026-04-21 07:34 | 33.43131 | 37.68480 | 20804 ft | 310 kts | 266° |
| 2026-04-21 07:35 | 33.43001 | 37.65907 | 20473 ft | 310 kts | 266° |
| 2026-04-21 07:35 | 33.42871 | 37.63339 | 20140 ft | 309 kts | 266° |
| 2026-04-21 07:35 | 33.42740 | 37.60775 | 19785 ft | 308 kts | 266° |
| 2026-04-21 07:35 | 33.42609 | 37.58220 | 19447 ft | 307 kts | 266° |
| 2026-04-21 07:36 | 33.42479 | 37.55669 | 19106 ft | 306 kts | 266° |
| 2026-04-21 07:36 | 33.42348 | 37.53130 | 18768 ft | 306 kts | 266° |
| 2026-04-21 07:36 | 33.42216 | 37.50592 | 18426 ft | 304 kts | 266° |
| 2026-04-21 07:36 | 33.42086 | 37.48077 | 18057 ft | 302 kts | 266° |
| 2026-04-21 07:37 | 33.41956 | 37.45577 | 17701 ft | 299 kts | 266° |
| 2026-04-21 07:37 | 33.41827 | 37.43132 | 17355 ft | 297 kts | 266° |
| 2026-04-21 07:37 | 33.41698 | 37.40681 | 17016 ft | 294 kts | 266° |
| 2026-04-21 07:37 | 33.41570 | 37.38257 | 16706 ft | 291 kts | 266° |
| 2026-04-21 07:38 | 33.41443 | 37.35854 | 16384 ft | 288 kts | 266° |
| 2026-04-21 07:38 | 33.41317 | 37.33477 | 16071 ft | 285 kts | 266° |
| 2026-04-21 07:38 | 33.41191 | 37.31122 | 15756 ft | 283 kts | 266° |
| 2026-04-21 07:38 | 33.41064 | 37.28755 | 15422 ft | 287 kts | 266° |
| 2026-04-21 07:39 | 33.40936 | 37.26358 | 15106 ft | 291 kts | 266° |
| 2026-04-21 07:39 | 33.40805 | 37.23935 | 14793 ft | 292 kts | 266° |
| 2026-04-21 07:39 | 33.40673 | 37.21507 | 14483 ft | 291 kts | 266° |
| 2026-04-21 07:39 | 33.40543 | 37.19100 | 14164 ft | 289 kts | 266° |
| 2026-04-21 07:40 | 33.40414 | 37.16737 | 13850 ft | 287 kts | 266° |
| 2026-04-21 07:40 | 33.40284 | 37.14363 | 13504 ft | 285 kts | 266° |
| 2026-04-21 07:40 | 33.40155 | 37.12005 | 13171 ft | 283 kts | 266° |
| 2026-04-21 07:40 | 33.40026 | 37.09672 | 12855 ft | 280 kts | 266° |
| 2026-04-21 07:41 | 33.39898 | 37.07349 | 12427 ft | 280 kts | 266° |
| 2026-04-21 07:41 | 33.39769 | 37.05024 | 12086 ft | 279 kts | 266° |
| 2026-04-21 07:41 | 33.39640 | 37.02711 | 11736 ft | 278 kts | 266° |
| 2026-04-21 07:41 | 33.39512 | 37.00404 | 11407 ft | 277 kts | 266° |
| 2026-04-21 07:42 | 33.39383 | 36.98099 | 11064 ft | 277 kts | 266° |
| 2026-04-21 07:42 | 33.39253 | 36.95802 | 10705 ft | 277 kts | 266° |
| 2026-04-21 07:42 | 33.39124 | 36.93513 | 10396 ft | 275 kts | 266° |
| 2026-04-21 07:42 | 33.39039 | 36.91999 | 10168 ft | 276 kts | 266° |
| 2026-04-21 07:43 | 33.38909 | 36.89715 | 9846 ft | 274 kts | 266° |
| 2026-04-21 07:43 | 33.38780 | 36.87447 | 9517 ft | 273 kts | 266° |
| 2026-04-21 07:43 | 33.38652 | 36.85181 | 9167 ft | 272 kts | 267° |
| 2026-04-21 07:43 | 33.38492 | 36.82196 | 8721 ft | 270 kts | 270° |
| 2026-04-21 07:44 | 33.38864 | 36.80028 | 8415 ft | 267 kts | 295° |
| 2026-04-21 07:44 | 33.39569 | 36.78808 | 8298 ft | 263 kts | 311° |
| 2026-04-21 07:44 | 33.40861 | 36.77347 | 8174 ft | 247 kts | 316° |
| 2026-04-21 07:44 | 33.42113 | 36.76010 | 7955 ft | 236 kts | 316° |
| 2026-04-21 07:45 | 33.43454 | 36.74996 | 7707 ft | 231 kts | 340° |
| 2026-04-21 07:45 | 33.45046 | 36.74735 | 7329 ft | 232 kts | 354° |
| 2026-04-21 07:45 | 33.46663 | 36.74669 | 6911 ft | 233 kts | 355° |
| 2026-04-21 07:45 | 33.48275 | 36.74593 | 6512 ft | 231 kts | 355° |
| 2026-04-21 07:46 | 33.49842 | 36.74294 | 6095 ft | 227 kts | 334° |
| 2026-04-21 07:46 | 33.51049 | 36.73155 | 5762 ft | 219 kts | 308° |
| 2026-04-21 07:46 | 33.51983 | 36.71702 | 5487 ft | 220 kts | 305° |
| 2026-04-21 07:46 | 33.52892 | 36.70228 | 5091 ft | 219 kts | 305° |
| 2026-04-21 07:47 | 33.53782 | 36.68804 | 4899 ft | 206 kts | 304° |
| 2026-04-21 07:47 | 33.54310 | 36.67298 | 4573 ft | 192 kts | 274° |
| 2026-04-21 07:47 | 33.54056 | 36.65825 | 4294 ft | 180 kts | 240° |
| 2026-04-21 07:47 | 33.53158 | 36.64859 | 4086 ft | 171 kts | 207° |
| 2026-04-21 07:48 | 33.52091 | 36.64199 | 4082 ft | 175 kts | 214° |
| 2026-04-21 07:48 | 33.51135 | 36.63307 | 4026 ft | 174 kts | 225° |
| 2026-04-21 07:48 | 33.50283 | 36.62265 | 3886 ft | 176 kts | 229° |
| 2026-04-21 07:48 | 33.49479 | 36.61187 | 3700 ft | 173 kts | 228° |
| 2026-04-21 07:49 | 33.48697 | 36.60137 | 3565 ft | 167 kts | 230° |
| 2026-04-21 07:49 | 33.47947 | 36.59118 | 3300 ft | 155 kts | 229° |
| 2026-04-21 07:49 | 33.47257 | 36.58177 | 3087 ft | 150 kts | 230° |
| 2026-04-21 07:49 | 33.46584 | 36.57226 | 2937 ft | 150 kts | 230° |
| 2026-04-21 07:50 | 33.45895 | 36.56296 | 2743 ft | 148 kts | 227° |
| 2026-04-21 07:50 | 33.45216 | 36.55372 | 2534 ft | 150 kts | 229° |
| 2026-04-21 07:50 | 33.44505 | 36.54458 | 2324 ft | 149 kts | 228° |
| 2026-04-21 07:50 | 33.43830 | 36.53538 | 2105 ft | 145 kts | 230° |
| 2026-04-21 07:51 | 33.43198 | 36.52685 | 2007 ft | 124 kts | 229° |
| 2026-04-21 07:51 | 33.42715 | 36.52039 | 2008 ft | 86 kts | 229° |
| 2026-04-21 07:51 | 33.42398 | 36.51614 | 2006 ft | 51 kts | 227° |
| 2026-04-21 07:51 | 33.42195 | 36.51343 | 2007 ft | 42 kts | 229° |
| 2026-04-21 07:52 | 33.42067 | 36.51173 | 2008 ft | 17 kts | 218° |
| 2026-04-21 07:52 | 33.41958 | 36.51152 | 2004 ft | 15 kts | 167° |
| 2026-04-21 07:52 | 33.41898 | 36.51190 | 2005 ft | 9 kts | 143° |
| 2026-04-21 07:52 | 33.41844 | 36.51243 | 2003 ft | 11 kts | 136° |
| 2026-04-21 07:53 | 33.41783 | 36.51310 | 2002 ft | 13 kts | 138° |
| 2026-04-21 07:53 | 33.41712 | 36.51384 | 2002 ft | 13 kts | 139° |
| 2026-04-21 07:53 | 33.41628 | 36.51406 | 2002 ft | 14 kts | 182° |
| 2026-04-21 07:53 | 33.41528 | 36.51399 | 2002 ft | 15 kts | 183° |
| 2026-04-21 07:54 | 33.41422 | 36.51392 | 1999 ft | 13 kts | 183° |
| 2026-04-21 07:54 | 33.41337 | 36.51420 | 2002 ft | 14 kts | 142° |
| 2026-04-21 07:54 | 33.41290 | 36.51468 | 2002 ft | 4 kts | 140° |
| 2026-04-21 07:54 | 33.41264 | 36.51466 | 2001 ft | 4 kts | 214° |
| 2026-04-21 07:55 | 33.41240 | 36.51436 | 2000 ft | 4 kts | 228° |
| 2026-04-21 07:55 | 33.41229 | 36.51422 | 2002 ft | 2 kts | 228° |
| 2026-04-21 07:55 | 33.41221 | 36.51411 | 2002 ft | 1 kts | 228° |